sensor_id;sensor_type;location;lat;lon;timestamp;P1;durP1;ratioP1;P2;durP2;ratioP2
25780;SDS011;13626;48.128;11.628;2023-06-10T00:02:14;6.60;;;5.90;;
25780;SDS011;13626;48.128;11.628;2023-06-10T00:04:43;6.30;;;5.70;;
25780;SDS011;13626;48.128;11.628;2023-06-10T00:07:10;6.60;;;5.32;;
25780;SDS011;13626;48.128;11.628;2023-06-10T00:09:38;5.80;;;5.18;;
25780;SDS011;13626;48.128;11.628;2023-06-10T00:12:06;6.28;;;5.68;;
25780;SDS011;13626;48.128;11.628;2023-06-10T00:14:33;6.30;;;5.70;;
25780;SDS011;13626;48.128;11.628;2023-06-10T00:17:01;6.53;;;5.82;;
25780;SDS011;13626;48.128;11.628;2023-06-10T00:19:28;7.13;;;5.47;;
25780;SDS011;13626;48.128;11.628;2023-06-10T00:21:59;5.85;;;5.20;;
25780;SDS011;13626;48.128;11.628;2023-06-10T00:24:26;6.25;;;5.43;;
25780;SDS011;13626;48.128;11.628;2023-06-10T00:26:54;6.53;;;5.70;;
25780;SDS011;13626;48.128;11.628;2023-06-10T00:29:21;8.02;;;5.82;;
25780;SDS011;13626;48.128;11.628;2023-06-10T00:31:48;10.45;;;6.10;;
25780;SDS011;13626;48.128;11.628;2023-06-10T00:34:15;6.88;;;5.55;;
25780;SDS011;13626;48.128;11.628;2023-06-10T00:36:42;7.43;;;6.03;;
25780;SDS011;13626;48.128;11.628;2023-06-10T00:39:09;6.65;;;5.70;;
25780;SDS011;13626;48.128;11.628;2023-06-10T00:41:37;5.97;;;5.38;;
25780;SDS011;13626;48.128;11.628;2023-06-10T00:44:04;8.38;;;5.60;;
25780;SDS011;13626;48.128;11.628;2023-06-10T00:46:31;6.13;;;5.18;;
25780;SDS011;13626;48.128;11.628;2023-06-10T00:48:59;5.28;;;4.78;;
25780;SDS011;13626;48.128;11.628;2023-06-10T00:51:27;7.00;;;5.95;;
25780;SDS011;13626;48.128;11.628;2023-06-10T00:53:54;6.03;;;5.00;;
25780;SDS011;13626;48.128;11.628;2023-06-10T00:56:21;7.50;;;6.63;;
25780;SDS011;13626;48.128;11.628;2023-06-10T00:58:49;7.47;;;5.90;;
25780;SDS011;13626;48.128;11.628;2023-06-10T01:01:16;5.95;;;5.28;;
25780;SDS011;13626;48.128;11.628;2023-06-10T01:03:44;6.45;;;5.53;;
25780;SDS011;13626;48.128;11.628;2023-06-10T01:08:49;7.75;;;6.13;;
25780;SDS011;13626;48.128;11.628;2023-06-10T01:11:21;8.10;;;6.32;;
25780;SDS011;13626;48.128;11.628;2023-06-10T01:13:51;6.30;;;5.70;;
25780;SDS011;13626;48.128;11.628;2023-06-10T01:16:21;5.78;;;5.13;;
25780;SDS011;13626;48.128;11.628;2023-06-10T01:18:49;6.65;;;5.97;;
25780;SDS011;13626;48.128;11.628;2023-06-10T01:21:20;6.90;;;5.78;;
25780;SDS011;13626;48.128;11.628;2023-06-10T01:23:47;7.03;;;6.32;;
25780;SDS011;13626;48.128;11.628;2023-06-10T01:26:15;6.70;;;6.00;;
25780;SDS011;13626;48.128;11.628;2023-06-10T01:34:03;6.57;;;5.93;;
25780;SDS011;13626;48.128;11.628;2023-06-10T01:36:32;6.88;;;5.55;;
25780;SDS011;13626;48.128;11.628;2023-06-10T01:39:00;6.60;;;5.63;;
25780;SDS011;13626;48.128;11.628;2023-06-10T01:41:29;6.85;;;6.15;;
25780;SDS011;13626;48.128;11.628;2023-06-10T01:43:57;7.72;;;6.32;;
25780;SDS011;13626;48.128;11.628;2023-06-10T01:46:24;6.63;;;5.78;;
25780;SDS011;13626;48.128;11.628;2023-06-10T01:48:52;6.93;;;6.22;;
25780;SDS011;13626;48.128;11.628;2023-06-10T01:51:19;7.45;;;6.22;;
25780;SDS011;13626;48.128;11.628;2023-06-10T01:53:46;6.25;;;5.65;;
25780;SDS011;13626;48.128;11.628;2023-06-10T01:56:14;7.30;;;6.28;;
25780;SDS011;13626;48.128;11.628;2023-06-10T01:58:45;6.65;;;5.88;;
25780;SDS011;13626;48.128;11.628;2023-06-10T02:01:13;6.80;;;6.10;;
25780;SDS011;13626;48.128;11.628;2023-06-10T02:03:40;6.90;;;6.18;;
25780;SDS011;13626;48.128;11.628;2023-06-10T02:06:08;7.25;;;5.85;;
25780;SDS011;13626;48.128;11.628;2023-06-10T02:08:35;6.43;;;5.63;;
25780;SDS011;13626;48.128;11.628;2023-06-10T02:11:02;7.70;;;5.75;;
25780;SDS011;13626;48.128;11.628;2023-06-10T02:13:30;7.82;;;6.28;;
25780;SDS011;13626;48.128;11.628;2023-06-10T02:15:57;7.53;;;6.65;;
25780;SDS011;13626;48.128;11.628;2023-06-10T02:18:24;7.18;;;6.45;;
25780;SDS011;13626;48.128;11.628;2023-06-10T02:20:53;8.55;;;6.43;;
25780;SDS011;13626;48.128;11.628;2023-06-10T02:23:20;6.75;;;5.85;;
25780;SDS011;13626;48.128;11.628;2023-06-10T02:25:47;7.07;;;6.15;;
25780;SDS011;13626;48.128;11.628;2023-06-10T02:28:14;8.52;;;6.63;;
25780;SDS011;13626;48.128;11.628;2023-06-10T02:30:42;7.32;;;6.60;;
25780;SDS011;13626;48.128;11.628;2023-06-10T02:33:10;7.05;;;6.35;;
25780;SDS011;13626;48.128;11.628;2023-06-10T02:35:38;8.15;;;6.40;;
25780;SDS011;13626;48.128;11.628;2023-06-10T02:38:05;8.57;;;6.45;;
25780;SDS011;13626;48.128;11.628;2023-06-10T02:40:32;7.07;;;6.28;;
25780;SDS011;13626;48.128;11.628;2023-06-10T02:43:00;6.45;;;5.85;;
25780;SDS011;13626;48.128;11.628;2023-06-10T02:45:27;7.40;;;6.53;;
25780;SDS011;13626;48.128;11.628;2023-06-10T02:47:54;7.35;;;6.10;;
25780;SDS011;13626;48.128;11.628;2023-06-10T02:50:22;9.32;;;6.45;;
25780;SDS011;13626;48.128;11.628;2023-06-10T02:52:49;7.43;;;6.63;;
25780;SDS011;13626;48.128;11.628;2023-06-10T02:55:16;7.55;;;6.75;;
25780;SDS011;13626;48.128;11.628;2023-06-10T02:57:43;7.15;;;6.45;;
25780;SDS011;13626;48.128;11.628;2023-06-10T03:00:11;10.18;;;6.60;;
25780;SDS011;13626;48.128;11.628;2023-06-10T03:02:40;8.32;;;6.88;;
25780;SDS011;13626;48.128;11.628;2023-06-10T03:05:08;7.82;;;6.85;;
25780;SDS011;13626;48.128;11.628;2023-06-10T03:07:36;7.35;;;6.40;;
25780;SDS011;13626;48.128;11.628;2023-06-10T03:10:04;7.47;;;6.72;;
25780;SDS011;13626;48.128;11.628;2023-06-10T03:12:32;7.75;;;6.72;;
25780;SDS011;13626;48.128;11.628;2023-06-10T03:14:59;8.20;;;6.95;;
25780;SDS011;13626;48.128;11.628;2023-06-10T03:17:26;12.55;;;7.47;;
25780;SDS011;13626;48.128;11.628;2023-06-10T03:19:53;9.15;;;7.38;;
25780;SDS011;13626;48.128;11.628;2023-06-10T03:22:20;9.65;;;7.47;;
25780;SDS011;13626;48.128;11.628;2023-06-10T03:24:48;9.32;;;7.78;;
25780;SDS011;13626;48.128;11.628;2023-06-10T03:27:16;10.30;;;7.88;;
25780;SDS011;13626;48.128;11.628;2023-06-10T03:29:43;10.23;;;8.02;;
25780;SDS011;13626;48.128;11.628;2023-06-10T03:32:11;10.02;;;8.32;;
25780;SDS011;13626;48.128;11.628;2023-06-10T03:34:38;10.43;;;8.43;;
25780;SDS011;13626;48.128;11.628;2023-06-10T03:37:05;9.00;;;7.68;;
25780;SDS011;13626;48.128;11.628;2023-06-10T03:39:33;10.68;;;8.25;;
25780;SDS011;13626;48.128;11.628;2023-06-10T03:42:00;11.27;;;8.10;;
25780;SDS011;13626;48.128;11.628;2023-06-10T03:44:27;11.10;;;8.65;;
25780;SDS011;13626;48.128;11.628;2023-06-10T03:46:55;9.75;;;8.35;;
25780;SDS011;13626;48.128;11.628;2023-06-10T03:49:23;12.00;;;8.65;;
25780;SDS011;13626;48.128;11.628;2023-06-10T03:51:53;9.35;;;8.35;;
25780;SDS011;13626;48.128;11.628;2023-06-10T03:54:20;9.43;;;7.85;;
25780;SDS011;13626;48.128;11.628;2023-06-10T03:56:47;9.82;;;8.50;;
25780;SDS011;13626;48.128;11.628;2023-06-10T03:59:14;10.60;;;8.55;;
25780;SDS011;13626;48.128;11.628;2023-06-10T04:01:42;8.15;;;7.32;;
25780;SDS011;13626;48.128;11.628;2023-06-10T04:04:11;9.20;;;8.30;;
25780;SDS011;13626;48.128;11.628;2023-06-10T04:06:39;9.98;;;7.75;;
25780;SDS011;13626;48.128;11.628;2023-06-10T04:09:07;10.00;;;8.15;;
25780;SDS011;13626;48.128;11.628;2023-06-10T04:11:36;8.55;;;7.57;;
25780;SDS011;13626;48.128;11.628;2023-06-10T04:14:03;10.32;;;8.43;;
25780;SDS011;13626;48.128;11.628;2023-06-10T04:16:30;10.05;;;9.00;;
25780;SDS011;13626;48.128;11.628;2023-06-10T04:18:58;15.70;;;9.73;;
25780;SDS011;13626;48.128;11.628;2023-06-10T04:21:26;10.02;;;8.82;;
25780;SDS011;13626;48.128;11.628;2023-06-10T04:23:54;10.43;;;8.95;;
25780;SDS011;13626;48.128;11.628;2023-06-10T04:26:21;11.50;;;9.32;;
25780;SDS011;13626;48.128;11.628;2023-06-10T04:28:48;9.68;;;8.68;;
25780;SDS011;13626;48.128;11.628;2023-06-10T04:31:16;12.32;;;9.32;;
25780;SDS011;13626;48.128;11.628;2023-06-10T04:33:44;12.27;;;9.20;;
25780;SDS011;13626;48.128;11.628;2023-06-10T04:36:11;11.55;;;9.65;;
25780;SDS011;13626;48.128;11.628;2023-06-10T04:38:38;11.00;;;9.63;;
25780;SDS011;13626;48.128;11.628;2023-06-10T04:41:07;12.18;;;9.70;;
25780;SDS011;13626;48.128;11.628;2023-06-10T04:43:34;10.57;;;9.20;;
25780;SDS011;13626;48.128;11.628;2023-06-10T04:46:01;10.05;;;8.60;;
25780;SDS011;13626;48.128;11.628;2023-06-10T04:48:30;10.82;;;9.48;;
25780;SDS011;13626;48.128;11.628;2023-06-10T04:51:01;12.73;;;9.18;;
25780;SDS011;13626;48.128;11.628;2023-06-10T04:53:28;10.48;;;9.38;;
25780;SDS011;13626;48.128;11.628;2023-06-10T04:55:56;11.32;;;8.85;;
25780;SDS011;13626;48.128;11.628;2023-06-10T04:58:24;8.73;;;7.85;;
25780;SDS011;13626;48.128;11.628;2023-06-10T05:00:51;11.23;;;9.18;;
25780;SDS011;13626;48.128;11.628;2023-06-10T05:03:18;10.60;;;9.40;;
25780;SDS011;13626;48.128;11.628;2023-06-10T05:05:45;13.30;;;9.95;;
25780;SDS011;13626;48.128;11.628;2023-06-10T05:08:13;11.63;;;9.48;;
25780;SDS011;13626;48.128;11.628;2023-06-10T05:10:40;11.95;;;9.77;;
25780;SDS011;13626;48.128;11.628;2023-06-10T05:13:07;11.38;;;9.80;;
25780;SDS011;13626;48.128;11.628;2023-06-10T05:15:34;10.63;;;9.30;;
25780;SDS011;13626;48.128;11.628;2023-06-10T05:18:02;13.00;;;10.13;;
25780;SDS011;13626;48.128;11.628;2023-06-10T05:20:29;11.65;;;9.80;;
25780;SDS011;13626;48.128;11.628;2023-06-10T05:22:57;11.05;;;9.90;;
25780;SDS011;13626;48.128;11.628;2023-06-10T05:25:25;11.57;;;9.68;;
25780;SDS011;13626;48.128;11.628;2023-06-10T05:27:53;11.90;;;9.68;;
25780;SDS011;13626;48.128;11.628;2023-06-10T05:30:20;10.25;;;8.43;;
25780;SDS011;13626;48.128;11.628;2023-06-10T05:32:48;11.40;;;9.35;;
25780;SDS011;13626;48.128;11.628;2023-06-10T05:35:17;12.07;;;10.00;;
25780;SDS011;13626;48.128;11.628;2023-06-10T05:37:44;11.68;;;10.02;;
25780;SDS011;13626;48.128;11.628;2023-06-10T05:40:11;14.60;;;10.20;;
25780;SDS011;13626;48.128;11.628;2023-06-10T05:42:39;10.55;;;9.45;;
25780;SDS011;13626;48.128;11.628;2023-06-10T05:45:06;11.90;;;9.85;;
25780;SDS011;13626;48.128;11.628;2023-06-10T05:47:34;12.65;;;10.05;;
25780;SDS011;13626;48.128;11.628;2023-06-10T05:50:01;13.05;;;10.00;;
25780;SDS011;13626;48.128;11.628;2023-06-10T05:52:33;10.32;;;8.57;;
25780;SDS011;13626;48.128;11.628;2023-06-10T05:55:01;11.50;;;9.90;;
25780;SDS011;13626;48.128;11.628;2023-06-10T05:57:28;11.93;;;9.63;;
25780;SDS011;13626;48.128;11.628;2023-06-10T05:59:55;9.32;;;8.05;;
25780;SDS011;13626;48.128;11.628;2023-06-10T06:02:22;11.77;;;8.98;;
25780;SDS011;13626;48.128;11.628;2023-06-10T06:04:49;13.35;;;9.68;;
25780;SDS011;13626;48.128;11.628;2023-06-10T06:07:17;10.35;;;9.10;;
25780;SDS011;13626;48.128;11.628;2023-06-10T06:09:47;12.50;;;8.60;;
25780;SDS011;13626;48.128;11.628;2023-06-10T06:12:14;10.45;;;8.90;;
25780;SDS011;13626;48.128;11.628;2023-06-10T06:14:41;11.23;;;9.18;;
25780;SDS011;13626;48.128;11.628;2023-06-10T06:17:08;9.43;;;8.43;;
25780;SDS011;13626;48.128;11.628;2023-06-10T06:19:36;10.20;;;8.25;;
25780;SDS011;13626;48.128;11.628;2023-06-10T06:22:03;14.45;;;9.63;;
25780;SDS011;13626;48.128;11.628;2023-06-10T06:24:30;9.02;;;7.85;;
25780;SDS011;13626;48.128;11.628;2023-06-10T06:26:57;9.80;;;7.95;;
25780;SDS011;13626;48.128;11.628;2023-06-10T06:29:25;10.20;;;9.05;;
25780;SDS011;13626;48.128;11.628;2023-06-10T06:31:52;8.77;;;7.63;;
25780;SDS011;13626;48.128;11.628;2023-06-10T06:34:20;9.77;;;8.43;;
25780;SDS011;13626;48.128;11.628;2023-06-10T06:36:47;8.85;;;7.95;;
25780;SDS011;13626;48.128;11.628;2023-06-10T06:39:14;11.85;;;8.15;;
25780;SDS011;13626;48.128;11.628;2023-06-10T06:41:41;9.52;;;8.00;;
25780;SDS011;13626;48.128;11.628;2023-06-10T06:44:08;8.27;;;7.18;;
25780;SDS011;13626;48.128;11.628;2023-06-10T06:46:35;8.18;;;7.38;;
25780;SDS011;13626;48.128;11.628;2023-06-10T06:49:03;10.25;;;7.32;;
25780;SDS011;13626;48.128;11.628;2023-06-10T06:51:30;8.20;;;7.40;;
25780;SDS011;13626;48.128;11.628;2023-06-10T06:53:57;7.82;;;7.03;;
25780;SDS011;13626;48.128;11.628;2023-06-10T06:56:25;8.65;;;7.55;;
25780;SDS011;13626;48.128;11.628;2023-06-10T06:58:54;9.85;;;8.15;;
25780;SDS011;13626;48.128;11.628;2023-06-10T07:01:23;8.52;;;7.63;;
25780;SDS011;13626;48.128;11.628;2023-06-10T07:03:50;10.18;;;7.95;;
25780;SDS011;13626;48.128;11.628;2023-06-10T07:06:18;8.20;;;7.40;;
25780;SDS011;13626;48.128;11.628;2023-06-10T07:08:45;8.63;;;7.82;;
25780;SDS011;13626;48.128;11.628;2023-06-10T07:11:12;8.38;;;7.57;;
25780;SDS011;13626;48.128;11.628;2023-06-10T07:13:41;8.88;;;7.30;;
25780;SDS011;13626;48.128;11.628;2023-06-10T07:16:08;7.22;;;6.10;;
25780;SDS011;13626;48.128;11.628;2023-06-10T07:18:35;6.80;;;6.30;;
25780;SDS011;13626;48.128;11.628;2023-06-10T07:21:02;7.50;;;6.80;;
25780;SDS011;13626;48.128;11.628;2023-06-10T07:23:29;8.48;;;6.78;;
25780;SDS011;13626;48.128;11.628;2023-06-10T07:25:57;7.90;;;7.10;;
25780;SDS011;13626;48.128;11.628;2023-06-10T07:28:24;6.53;;;6.00;;
25780;SDS011;13626;48.128;11.628;2023-06-10T07:30:51;6.38;;;5.88;;
25780;SDS011;13626;48.128;11.628;2023-06-10T07:33:19;6.45;;;5.85;;
25780;SDS011;13626;48.128;11.628;2023-06-10T07:35:46;16.23;;;5.55;;
25780;SDS011;13626;48.128;11.628;2023-06-10T07:38:13;6.38;;;5.80;;
25780;SDS011;13626;48.128;11.628;2023-06-10T07:40:40;5.53;;;5.03;;
25780;SDS011;13626;48.128;11.628;2023-06-10T07:43:07;5.78;;;5.28;;
25780;SDS011;13626;48.128;11.628;2023-06-10T07:45:35;5.32;;;4.78;;
25780;SDS011;13626;48.128;11.628;2023-06-10T07:48:02;5.78;;;5.28;;
25780;SDS011;13626;48.128;11.628;2023-06-10T07:50:29;6.28;;;5.68;;
25780;SDS011;13626;48.128;11.628;2023-06-10T07:52:56;11.13;;;5.00;;
25780;SDS011;13626;48.128;11.628;2023-06-10T07:55:24;5.32;;;4.82;;
25780;SDS011;13626;48.128;11.628;2023-06-10T07:57:54;4.97;;;4.47;;
25780;SDS011;13626;48.128;11.628;2023-06-10T08:00:21;5.60;;;5.10;;
25780;SDS011;13626;48.128;11.628;2023-06-10T08:02:48;5.05;;;4.55;;
25780;SDS011;13626;48.128;11.628;2023-06-10T08:05:17;5.88;;;5.13;;
25780;SDS011;13626;48.128;11.628;2023-06-10T08:07:44;6.38;;;5.88;;
25780;SDS011;13626;48.128;11.628;2023-06-10T08:10:11;6.65;;;6.07;;
25780;SDS011;13626;48.128;11.628;2023-06-10T08:12:38;5.70;;;5.20;;
25780;SDS011;13626;48.128;11.628;2023-06-10T08:15:06;5.93;;;5.32;;
25780;SDS011;13626;48.128;11.628;2023-06-10T08:17:34;6.00;;;5.50;;
25780;SDS011;13626;48.128;11.628;2023-06-10T08:20:01;6.32;;;5.80;;
25780;SDS011;13626;48.128;11.628;2023-06-10T08:22:28;5.88;;;5.28;;
25780;SDS011;13626;48.128;11.628;2023-06-10T08:24:56;5.88;;;5.22;;
25780;SDS011;13626;48.128;11.628;2023-06-10T08:27:23;5.50;;;5.00;;
25780;SDS011;13626;48.128;11.628;2023-06-10T08:29:51;5.45;;;4.95;;
25780;SDS011;13626;48.128;11.628;2023-06-10T08:32:18;6.80;;;5.10;;
25780;SDS011;13626;48.128;11.628;2023-06-10T08:34:45;5.93;;;5.22;;
25780;SDS011;13626;48.128;11.628;2023-06-10T08:37:12;6.50;;;4.63;;
25780;SDS011;13626;48.128;11.628;2023-06-10T08:39:39;5.43;;;4.93;;
25780;SDS011;13626;48.128;11.628;2023-06-10T08:44:35;6.00;;;5.50;;
25780;SDS011;13626;48.128;11.628;2023-06-10T08:47:14;5.97;;;5.47;;
25780;SDS011;13626;48.128;11.628;2023-06-10T08:49:43;6.70;;;6.10;;
25780;SDS011;13626;48.128;11.628;2023-06-10T08:52:14;7.50;;;6.70;;
25780;SDS011;13626;48.128;11.628;2023-06-10T08:54:43;8.25;;;6.63;;
25780;SDS011;13626;48.128;11.628;2023-06-10T08:57:10;7.40;;;6.70;;
25780;SDS011;13626;48.128;11.628;2023-06-10T08:59:38;5.95;;;5.45;;
25780;SDS011;13626;48.128;11.628;2023-06-10T09:02:05;7.82;;;6.93;;
25780;SDS011;13626;48.128;11.628;2023-06-10T09:04:34;7.30;;;6.60;;
25780;SDS011;13626;48.128;11.628;2023-06-10T09:07:02;6.90;;;6.20;;
25780;SDS011;13626;48.128;11.628;2023-06-10T09:09:29;7.65;;;6.40;;
25780;SDS011;13626;48.128;11.628;2023-06-10T09:11:57;7.85;;;7.00;;
25780;SDS011;13626;48.128;11.628;2023-06-10T09:14:25;6.55;;;5.82;;
25780;SDS011;13626;48.128;11.628;2023-06-10T09:16:52;6.78;;;5.60;;
25780;SDS011;13626;48.128;11.628;2023-06-10T09:19:23;6.18;;;5.55;;
25780;SDS011;13626;48.128;11.628;2023-06-10T09:21:51;6.50;;;5.80;;
25780;SDS011;13626;48.128;11.628;2023-06-10T09:24:18;5.85;;;5.25;;
25780;SDS011;13626;48.128;11.628;2023-06-10T09:26:45;5.93;;;4.93;;
25780;SDS011;13626;48.128;11.628;2023-06-10T09:29:13;5.72;;;5.22;;
25780;SDS011;13626;48.128;11.628;2023-06-10T09:31:40;5.97;;;5.38;;
25780;SDS011;13626;48.128;11.628;2023-06-10T09:34:11;7.28;;;5.72;;
25780;SDS011;13626;48.128;11.628;2023-06-10T09:36:38;6.13;;;5.63;;
25780;SDS011;13626;48.128;11.628;2023-06-10T09:39:16;7.47;;;5.93;;
25780;SDS011;13626;48.128;11.628;2023-06-10T09:41:45;6.13;;;5.60;;
25780;SDS011;13626;48.128;11.628;2023-06-10T09:44:13;6.38;;;5.78;;
25780;SDS011;13626;48.128;11.628;2023-06-10T09:46:40;6.30;;;5.35;;
25780;SDS011;13626;48.128;11.628;2023-06-10T09:49:08;5.70;;;4.90;;
25780;SDS011;13626;48.128;11.628;2023-06-10T09:51:35;6.50;;;5.15;;
25780;SDS011;13626;48.128;11.628;2023-06-10T09:54:02;6.53;;;5.28;;
25780;SDS011;13626;48.128;11.628;2023-06-10T09:56:36;5.88;;;5.30;;
25780;SDS011;13626;48.128;11.628;2023-06-10T09:59:04;4.90;;;4.50;;
25780;SDS011;13626;48.128;11.628;2023-06-10T10:01:32;5.35;;;4.85;;
25780;SDS011;13626;48.128;11.628;2023-06-10T10:03:59;5.40;;;4.90;;
25780;SDS011;13626;48.128;11.628;2023-06-10T10:06:27;8.85;;;4.43;;
25780;SDS011;13626;48.128;11.628;2023-06-10T10:08:56;8.27;;;5.22;;
25780;SDS011;13626;48.128;11.628;2023-06-10T10:11:23;5.50;;;4.50;;
25780;SDS011;13626;48.128;11.628;2023-06-10T10:13:54;6.15;;;5.22;;
25780;SDS011;13626;48.128;11.628;2023-06-10T10:16:33;5.68;;;5.18;;
25780;SDS011;13626;48.128;11.628;2023-06-10T10:19:07;4.60;;;4.20;;
25780;SDS011;13626;48.128;11.628;2023-06-10T10:21:38;4.97;;;4.50;;
25780;SDS011;13626;48.128;11.628;2023-06-10T10:24:15;5.13;;;4.63;;
25780;SDS011;13626;48.128;11.628;2023-06-10T10:26:43;4.72;;;4.32;;
25780;SDS011;13626;48.128;11.628;2023-06-10T10:31:40;4.40;;;4.10;;
25780;SDS011;13626;48.128;11.628;2023-06-10T10:34:15;4.57;;;4.18;;
25780;SDS011;13626;48.128;11.628;2023-06-10T10:36:43;4.80;;;4.40;;
25780;SDS011;13626;48.128;11.628;2023-06-10T10:39:11;5.80;;;5.05;;
25780;SDS011;13626;48.128;11.628;2023-06-10T10:41:38;4.70;;;4.28;;
25780;SDS011;13626;48.128;11.628;2023-06-10T10:44:06;5.10;;;4.70;;
25780;SDS011;13626;48.128;11.628;2023-06-10T10:46:44;4.47;;;4.07;;
25780;SDS011;13626;48.128;11.628;2023-06-10T10:49:12;4.90;;;4.40;;
25780;SDS011;13626;48.128;11.628;2023-06-10T10:52:14;5.95;;;5.07;;
25780;SDS011;13626;48.128;11.628;2023-06-10T10:57:28;4.50;;;4.10;;
25780;SDS011;13626;48.128;11.628;2023-06-10T10:59:57;5.43;;;4.93;;
25780;SDS011;13626;48.128;11.628;2023-06-10T11:05:00;4.80;;;4.30;;
25780;SDS011;13626;48.128;11.628;2023-06-10T11:07:31;5.13;;;4.00;;
25780;SDS011;13626;48.128;11.628;2023-06-10T11:15:08;4.10;;;3.70;;
25780;SDS011;13626;48.128;11.628;2023-06-10T11:17:36;3.30;;;3.10;;
25780;SDS011;13626;48.128;11.628;2023-06-10T11:20:03;4.30;;;3.90;;
25780;SDS011;13626;48.128;11.628;2023-06-10T11:22:31;3.65;;;3.35;;
25780;SDS011;13626;48.128;11.628;2023-06-10T11:24:58;4.07;;;3.67;;
25780;SDS011;13626;48.128;11.628;2023-06-10T11:27:26;3.60;;;3.30;;
25780;SDS011;13626;48.128;11.628;2023-06-10T11:32:32;3.72;;;3.30;;
25780;SDS011;13626;48.128;11.628;2023-06-10T11:35:03;3.42;;;3.13;;
25780;SDS011;13626;48.128;11.628;2023-06-10T11:37:31;3.53;;;3.22;;
25780;SDS011;13626;48.128;11.628;2023-06-10T11:39:58;3.40;;;3.10;;
25780;SDS011;13626;48.128;11.628;2023-06-10T11:42:25;7.38;;;4.20;;
25780;SDS011;13626;48.128;11.628;2023-06-10T11:44:53;7.72;;;3.58;;
25780;SDS011;13626;48.128;11.628;2023-06-10T11:47:21;4.32;;;3.92;;
25780;SDS011;13626;48.128;11.628;2023-06-10T11:49:55;4.97;;;4.47;;
25780;SDS011;13626;48.128;11.628;2023-06-10T11:52:26;4.43;;;3.42;;
25780;SDS011;13626;48.128;11.628;2023-06-10T11:54:54;4.13;;;3.72;;
25780;SDS011;13626;48.128;11.628;2023-06-10T11:57:22;3.65;;;3.22;;
25780;SDS011;13626;48.128;11.628;2023-06-10T11:59:49;6.22;;;3.60;;
25780;SDS011;13626;48.128;11.628;2023-06-10T12:02:16;4.80;;;3.97;;
25780;SDS011;13626;48.128;11.628;2023-06-10T12:04:44;3.97;;;3.67;;
25780;SDS011;13626;48.128;11.628;2023-06-10T12:07:19;3.78;;;3.47;;
25780;SDS011;13626;48.128;11.628;2023-06-10T12:12:14;4.93;;;3.42;;
25780;SDS011;13626;48.128;11.628;2023-06-10T12:14:51;3.38;;;3.03;;
25780;SDS011;13626;48.128;11.628;2023-06-10T12:20:01;2.83;;;2.63;;
25780;SDS011;13626;48.128;11.628;2023-06-10T12:22:39;3.47;;;3.17;;
25780;SDS011;13626;48.128;11.628;2023-06-10T12:25:07;3.60;;;3.20;;
25780;SDS011;13626;48.128;11.628;2023-06-10T12:27:35;3.55;;;3.25;;
25780;SDS011;13626;48.128;11.628;2023-06-10T12:30:04;4.35;;;3.75;;
25780;SDS011;13626;48.128;11.628;2023-06-10T12:32:42;3.13;;;2.90;;
25780;SDS011;13626;48.128;11.628;2023-06-10T12:35:10;3.03;;;2.72;;
25780;SDS011;13626;48.128;11.628;2023-06-10T12:37:40;2.90;;;2.60;;
25780;SDS011;13626;48.128;11.628;2023-06-10T12:40:09;3.72;;;2.78;;
25780;SDS011;13626;48.128;11.628;2023-06-10T12:42:37;2.80;;;2.60;;
25780;SDS011;13626;48.128;11.628;2023-06-10T12:45:04;2.70;;;2.50;;
25780;SDS011;13626;48.128;11.628;2023-06-10T12:47:36;4.50;;;2.90;;
25780;SDS011;13626;48.128;11.628;2023-06-10T12:50:05;3.47;;;3.17;;
25780;SDS011;13626;48.128;11.628;2023-06-10T12:52:32;5.38;;;3.45;;
25780;SDS011;13626;48.128;11.628;2023-06-10T12:55:00;4.22;;;3.83;;
25780;SDS011;13626;48.128;11.628;2023-06-10T12:57:27;5.40;;;4.30;;
25780;SDS011;13626;48.128;11.628;2023-06-10T12:59:55;7.55;;;4.78;;
25780;SDS011;13626;48.128;11.628;2023-06-10T13:02:29;5.03;;;4.50;;
25780;SDS011;13626;48.128;11.628;2023-06-10T13:04:58;4.90;;;4.50;;
25780;SDS011;13626;48.128;11.628;2023-06-10T13:07:25;5.38;;;4.88;;
25780;SDS011;13626;48.128;11.628;2023-06-10T13:09:52;4.85;;;4.45;;
25780;SDS011;13626;48.128;11.628;2023-06-10T13:12:20;4.40;;;4.00;;
25780;SDS011;13626;48.128;11.628;2023-06-10T13:15:03;5.55;;;5.03;;
25780;SDS011;13626;48.128;11.628;2023-06-10T13:17:31;5.07;;;4.57;;
25780;SDS011;13626;48.128;11.628;2023-06-10T13:20:00;5.38;;;4.45;;
25780;SDS011;13626;48.128;11.628;2023-06-10T13:22:27;4.70;;;4.28;;
25780;SDS011;13626;48.128;11.628;2023-06-10T13:24:55;4.40;;;4.00;;
25780;SDS011;13626;48.128;11.628;2023-06-10T13:27:22;4.55;;;4.07;;
25780;SDS011;13626;48.128;11.628;2023-06-10T13:29:49;4.65;;;4.25;;
25780;SDS011;13626;48.128;11.628;2023-06-10T13:32:16;4.40;;;3.65;;
25780;SDS011;13626;48.128;11.628;2023-06-10T13:34:43;4.82;;;4.43;;
25780;SDS011;13626;48.128;11.628;2023-06-10T13:37:11;5.07;;;3.78;;
25780;SDS011;13626;48.128;11.628;2023-06-10T13:39:43;4.50;;;4.10;;
25780;SDS011;13626;48.128;11.628;2023-06-10T13:42:11;6.57;;;3.70;;
25780;SDS011;13626;48.128;11.628;2023-06-10T13:44:38;4.15;;;3.75;;
25780;SDS011;13626;48.128;11.628;2023-06-10T13:47:05;5.60;;;3.42;;
25780;SDS011;13626;48.128;11.628;2023-06-10T13:49:33;4.60;;;3.33;;
25780;SDS011;13626;48.128;11.628;2023-06-10T13:52:00;5.57;;;4.38;;
25780;SDS011;13626;48.128;11.628;2023-06-10T13:54:28;4.03;;;3.70;;
25780;SDS011;13626;48.128;11.628;2023-06-10T13:56:55;4.57;;;4.18;;
25780;SDS011;13626;48.128;11.628;2023-06-10T13:59:22;4.10;;;3.72;;
25780;SDS011;13626;48.128;11.628;2023-06-10T14:01:50;5.03;;;3.40;;
25780;SDS011;13626;48.128;11.628;2023-06-10T14:04:17;3.70;;;3.40;;
25780;SDS011;13626;48.128;11.628;2023-06-10T14:06:44;5.20;;;4.10;;
25780;SDS011;13626;48.128;11.628;2023-06-10T14:09:14;5.30;;;4.80;;
25780;SDS011;13626;48.128;11.628;2023-06-10T14:11:42;4.82;;;3.33;;
25780;SDS011;13626;48.128;11.628;2023-06-10T14:14:09;3.42;;;3.13;;
25780;SDS011;13626;48.128;11.628;2023-06-10T14:16:37;3.60;;;3.30;;
25780;SDS011;13626;48.128;11.628;2023-06-10T14:19:08;4.18;;;3.78;;
25780;SDS011;13626;48.128;11.628;2023-06-10T14:21:35;5.55;;;3.72;;
25780;SDS011;13626;48.128;11.628;2023-06-10T14:24:03;4.32;;;3.92;;
25780;SDS011;13626;48.128;11.628;2023-06-10T14:26:30;5.03;;;3.88;;
25780;SDS011;13626;48.128;11.628;2023-06-10T14:28:59;4.28;;;3.92;;
25780;SDS011;13626;48.128;11.628;2023-06-10T14:31:26;3.85;;;3.45;;
25780;SDS011;13626;48.128;11.628;2023-06-10T14:33:53;4.18;;;3.83;;
25780;SDS011;13626;48.128;11.628;2023-06-10T14:36:20;3.30;;;3.00;;
25780;SDS011;13626;48.128;11.628;2023-06-10T14:38:48;6.60;;;5.25;;
25780;SDS011;13626;48.128;11.628;2023-06-10T14:41:15;6.35;;;5.25;;
25780;SDS011;13626;48.128;11.628;2023-06-10T14:43:42;3.80;;;3.40;;
25780;SDS011;13626;48.128;11.628;2023-06-10T14:46:09;4.72;;;4.32;;
25780;SDS011;13626;48.128;11.628;2023-06-10T14:48:36;3.50;;;3.20;;
25780;SDS011;13626;48.128;11.628;2023-06-10T14:51:04;3.30;;;3.00;;
25780;SDS011;13626;48.128;11.628;2023-06-10T14:53:31;3.72;;;3.42;;
25780;SDS011;13626;48.128;11.628;2023-06-10T14:55:58;3.63;;;3.33;;
25780;SDS011;13626;48.128;11.628;2023-06-10T14:58:25;4.85;;;3.67;;
25780;SDS011;13626;48.128;11.628;2023-06-10T15:00:52;5.32;;;4.20;;
25780;SDS011;13626;48.128;11.628;2023-06-10T15:03:20;4.32;;;3.92;;
25780;SDS011;13626;48.128;11.628;2023-06-10T15:05:47;5.50;;;5.00;;
25780;SDS011;13626;48.128;11.628;2023-06-10T15:08:14;8.32;;;5.55;;